sensor_id;sensor_type;location;lat;lon;timestamp;temperature;humidity
8856;DHT22;4464;50.882;4.730;2022-12-07T00:01:21;5.40;99.90
8856;DHT22;4464;50.882;4.730;2022-12-07T00:03:52;5.40;99.90
8856;DHT22;4464;50.882;4.730;2022-12-07T00:06:19;5.30;99.90
8856;DHT22;4464;50.882;4.730;2022-12-07T00:08:46;5.30;99.90
8856;DHT22;4464;50.882;4.730;2022-12-07T00:11:19;5.20;99.90
8856;DHT22;4464;50.882;4.730;2022-12-07T00:13:45;5.20;99.90
8856;DHT22;4464;50.882;4.730;2022-12-07T00:16:18;5.20;99.90
8856;DHT22;4464;50.882;4.730;2022-12-07T00:18:47;5.20;99.90
8856;DHT22;4464;50.882;4.730;2022-12-07T00:21:17;5.20;99.90
8856;DHT22;4464;50.882;4.730;2022-12-07T00:23:48;5.40;99.90
8856;DHT22;4464;50.882;4.730;2022-12-07T00:26:25;5.40;99.90
8856;DHT22;4464;50.882;4.730;2022-12-07T00:28:56;5.40;99.90
8856;DHT22;4464;50.882;4.730;2022-12-07T00:31:27;5.50;99.90
8856;DHT22;4464;50.882;4.730;2022-12-07T00:33:53;5.40;99.90
8856;DHT22;4464;50.882;4.730;2022-12-07T00:36:23;5.40;99.90
8856;DHT22;4464;50.882;4.730;2022-12-07T00:38:48;5.30;99.90
8856;DHT22;4464;50.882;4.730;2022-12-07T00:41:17;5.20;99.90
8856;DHT22;4464;50.882;4.730;2022-12-07T00:43:45;5.10;99.90
8856;DHT22;4464;50.882;4.730;2022-12-07T00:46:15;5.10;99.90
8856;DHT22;4464;50.882;4.730;2022-12-07T00:48:41;5.00;99.90
8856;DHT22;4464;50.882;4.730;2022-12-07T00:51:09;5.00;99.90
8856;DHT22;4464;50.882;4.730;2022-12-07T00:53:36;5.00;99.90
8856;DHT22;4464;50.882;4.730;2022-12-07T00:56:12;5.00;99.90
8856;DHT22;4464;50.882;4.730;2022-12-07T00:58:41;5.10;99.90
8856;DHT22;4464;50.882;4.730;2022-12-07T01:01:09;5.10;99.90
8856;DHT22;4464;50.882;4.730;2022-12-07T01:03:35;5.20;99.90
8856;DHT22;4464;50.882;4.730;2022-12-07T01:06:03;5.20;99.90
8856;DHT22;4464;50.882;4.730;2022-12-07T01:08:32;5.30;99.90
8856;DHT22;4464;50.882;4.730;2022-12-07T01:11:06;5.20;99.90
8856;DHT22;4464;50.882;4.730;2022-12-07T01:13:34;5.20;99.90
8856;DHT22;4464;50.882;4.730;2022-12-07T01:16:05;5.20;99.90
8856;DHT22;4464;50.882;4.730;2022-12-07T01:18:33;5.10;99.90
8856;DHT22;4464;50.882;4.730;2022-12-07T01:21:09;5.20;99.90
8856;DHT22;4464;50.882;4.730;2022-12-07T01:23:39;5.20;99.90
8856;DHT22;4464;50.882;4.730;2022-12-07T01:26:13;5.10;99.90
8856;DHT22;4464;50.882;4.730;2022-12-07T01:28:42;5.10;99.90
8856;DHT22;4464;50.882;4.730;2022-12-07T01:31:17;5.00;99.90
8856;DHT22;4464;50.882;4.730;2022-12-07T01:33:49;4.80;99.90
8856;DHT22;4464;50.882;4.730;2022-12-07T01:38:48;4.80;99.90
8856;DHT22;4464;50.882;4.730;2022-12-07T01:41:17;4.80;99.90
8856;DHT22;4464;50.882;4.730;2022-12-07T01:46:40;4.80;99.90
8856;DHT22;4464;50.882;4.730;2022-12-07T01:49:10;4.80;99.90
8856;DHT22;4464;50.882;4.730;2022-12-07T01:51:38;4.80;99.90
8856;DHT22;4464;50.882;4.730;2022-12-07T01:54:06;4.90;99.90
8856;DHT22;4464;50.882;4.730;2022-12-07T01:56:33;4.90;99.90
8856;DHT22;4464;50.882;4.730;2022-12-07T01:59:00;4.90;99.90
8856;DHT22;4464;50.882;4.730;2022-12-07T02:01:28;4.90;99.90
8856;DHT22;4464;50.882;4.730;2022-12-07T02:03:54;4.90;99.90
8856;DHT22;4464;50.882;4.730;2022-12-07T02:06:23;5.00;99.90
8856;DHT22;4464;50.882;4.730;2022-12-07T02:08:50;5.00;99.90
8856;DHT22;4464;50.882;4.730;2022-12-07T02:11:16;5.00;99.90
8856;DHT22;4464;50.882;4.730;2022-12-07T02:13:45;5.00;99.90
8856;DHT22;4464;50.882;4.730;2022-12-07T02:21:51;5.00;99.90
8856;DHT22;4464;50.882;4.730;2022-12-07T02:24:37;5.00;99.90
8856;DHT22;4464;50.882;4.730;2022-12-07T02:30:19;4.90;99.90
8856;DHT22;4464;50.882;4.730;2022-12-07T02:35:47;4.80;99.90
8856;DHT22;4464;50.882;4.730;2022-12-07T02:43:53;4.70;99.90
8856;DHT22;4464;50.882;4.730;2022-12-07T02:46:29;4.80;99.90
8856;DHT22;4464;50.882;4.730;2022-12-07T02:48:56;4.80;99.90
8856;DHT22;4464;50.882;4.730;2022-12-07T02:51:24;4.80;99.90
8856;DHT22;4464;50.882;4.730;2022-12-07T02:53:51;4.80;99.90
8856;DHT22;4464;50.882;4.730;2022-12-07T03:02:17;4.80;99.90
8856;DHT22;4464;50.882;4.730;2022-12-07T03:08:00;4.90;99.90
8856;DHT22;4464;50.882;4.730;2022-12-07T03:16:14;4.80;99.90
8856;DHT22;4464;50.882;4.730;2022-12-07T03:19:33;4.70;99.90
8856;DHT22;4464;50.882;4.730;2022-12-07T03:21:44;4.80;99.90
8856;DHT22;4464;50.882;4.730;2022-12-07T03:24:17;4.70;99.90
8856;DHT22;4464;50.882;4.730;2022-12-07T03:26:49;4.70;99.90
8856;DHT22;4464;50.882;4.730;2022-12-07T03:29:21;4.60;99.90
8856;DHT22;4464;50.882;4.730;2022-12-07T03:31:57;4.60;99.90
8856;DHT22;4464;50.882;4.730;2022-12-07T03:34:36;4.60;99.90
8856;DHT22;4464;50.882;4.730;2022-12-07T03:37:08;4.60;99.90
8856;DHT22;4464;50.882;4.730;2022-12-07T03:39:56;4.50;99.90
8856;DHT22;4464;50.882;4.730;2022-12-07T03:42:27;4.60;99.90
8856;DHT22;4464;50.882;4.730;2022-12-07T03:44:53;4.70;99.90
8856;DHT22;4464;50.882;4.730;2022-12-07T03:50:14;4.80;99.90
8856;DHT22;4464;50.882;4.730;2022-12-07T03:52:46;4.90;99.90
8856;DHT22;4464;50.882;4.730;2022-12-07T03:55:37;4.90;99.90
8856;DHT22;4464;50.882;4.730;2022-12-07T03:58:18;4.90;99.90
8856;DHT22;4464;50.882;4.730;2022-12-07T04:00:45;4.80;99.90
8856;DHT22;4464;50.882;4.730;2022-12-07T04:03:13;4.80;99.90
8856;DHT22;4464;50.882;4.730;2022-12-07T04:05:39;4.70;99.90
8856;DHT22;4464;50.882;4.730;2022-12-07T04:08:05;4.70;99.90
8856;DHT22;4464;50.882;4.730;2022-12-07T04:10:34;4.70;99.90
8856;DHT22;4464;50.882;4.730;2022-12-07T04:13:02;4.80;99.90
8856;DHT22;4464;50.882;4.730;2022-12-07T04:15:30;4.70;99.90
8856;DHT22;4464;50.882;4.730;2022-12-07T04:17:56;4.70;99.90
8856;DHT22;4464;50.882;4.730;2022-12-07T04:20:22;4.70;99.90
8856;DHT22;4464;50.882;4.730;2022-12-07T04:22:47;4.70;99.90
8856;DHT22;4464;50.882;4.730;2022-12-07T04:25:14;4.70;99.90
8856;DHT22;4464;50.882;4.730;2022-12-07T04:27:40;4.60;99.90
8856;DHT22;4464;50.882;4.730;2022-12-07T04:30:06;4.40;99.90
8856;DHT22;4464;50.882;4.730;2022-12-07T04:32:32;4.30;99.90
8856;DHT22;4464;50.882;4.730;2022-12-07T04:34:59;4.10;99.90
8856;DHT22;4464;50.882;4.730;2022-12-07T04:37:24;4.00;99.90
8856;DHT22;4464;50.882;4.730;2022-12-07T04:39:50;4.00;99.90
8856;DHT22;4464;50.882;4.730;2022-12-07T04:42:16;3.90;99.90
8856;DHT22;4464;50.882;4.730;2022-12-07T04:44:44;3.90;99.90
8856;DHT22;4464;50.882;4.730;2022-12-07T04:47:12;3.80;99.90
8856;DHT22;4464;50.882;4.730;2022-12-07T04:49:38;3.80;99.90
8856;DHT22;4464;50.882;4.730;2022-12-07T04:52:04;3.80;99.90
8856;DHT22;4464;50.882;4.730;2022-12-07T04:54:30;3.90;99.90
8856;DHT22;4464;50.882;4.730;2022-12-07T04:56:57;3.90;99.90
8856;DHT22;4464;50.882;4.730;2022-12-07T04:59:25;3.90;99.90
8856;DHT22;4464;50.882;4.730;2022-12-07T05:01:51;4.10;99.90
8856;DHT22;4464;50.882;4.730;2022-12-07T05:04:19;4.10;99.90
8856;DHT22;4464;50.882;4.730;2022-12-07T05:06:48;4.10;99.90
8856;DHT22;4464;50.882;4.730;2022-12-07T05:09:13;4.00;99.90
8856;DHT22;4464;50.882;4.730;2022-12-07T05:11:39;3.90;99.90
8856;DHT22;4464;50.882;4.730;2022-12-07T05:14:19;3.90;99.90
8856;DHT22;4464;50.882;4.730;2022-12-07T05:16:49;3.90;99.90
8856;DHT22;4464;50.882;4.730;2022-12-07T05:19:17;3.90;99.90
8856;DHT22;4464;50.882;4.730;2022-12-07T05:21:45;3.80;99.90
8856;DHT22;4464;50.882;4.730;2022-12-07T05:24:12;3.80;99.90
8856;DHT22;4464;50.882;4.730;2022-12-07T05:26:39;3.80;99.90
8856;DHT22;4464;50.882;4.730;2022-12-07T05:29:12;3.90;99.90
8856;DHT22;4464;50.882;4.730;2022-12-07T05:31:41;3.90;99.90
8856;DHT22;4464;50.882;4.730;2022-12-07T05:34:08;4.10;99.90
8856;DHT22;4464;50.882;4.730;2022-12-07T05:36:35;4.20;99.90
8856;DHT22;4464;50.882;4.730;2022-12-07T05:39:03;4.30;99.90
8856;DHT22;4464;50.882;4.730;2022-12-07T05:41:31;4.30;99.90
8856;DHT22;4464;50.882;4.730;2022-12-07T05:44:15;4.40;99.90
8856;DHT22;4464;50.882;4.730;2022-12-07T05:46:41;4.40;99.90
8856;DHT22;4464;50.882;4.730;2022-12-07T05:49:08;4.40;99.90
8856;DHT22;4464;50.882;4.730;2022-12-07T05:51:33;4.40;99.90
8856;DHT22;4464;50.882;4.730;2022-12-07T05:53:59;4.40;99.90
8856;DHT22;4464;50.882;4.730;2022-12-07T05:56:25;4.30;99.90
8856;DHT22;4464;50.882;4.730;2022-12-07T05:58:52;4.30;99.90
8856;DHT22;4464;50.882;4.730;2022-12-07T06:01:36;4.40;99.90
8856;DHT22;4464;50.882;4.730;2022-12-07T06:04:01;4.30;99.90
8856;DHT22;4464;50.882;4.730;2022-12-07T06:06:27;4.30;99.90
8856;DHT22;4464;50.882;4.730;2022-12-07T06:08:53;4.40;99.90
8856;DHT22;4464;50.882;4.730;2022-12-07T06:11:21;4.30;99.90
8856;DHT22;4464;50.882;4.730;2022-12-07T06:14:06;4.40;99.90
8856;DHT22;4464;50.882;4.730;2022-12-07T06:16:32;4.40;99.90
8856;DHT22;4464;50.882;4.730;2022-12-07T06:19:03;4.50;99.90
8856;DHT22;4464;50.882;4.730;2022-12-07T06:21:29;4.50;99.90
8856;DHT22;4464;50.882;4.730;2022-12-07T06:23:54;4.40;99.90
8856;DHT22;4464;50.882;4.730;2022-12-07T06:26:23;4.40;99.90
8856;DHT22;4464;50.882;4.730;2022-12-07T06:28:51;4.40;99.90
8856;DHT22;4464;50.882;4.730;2022-12-07T06:31:19;4.40;99.90
8856;DHT22;4464;50.882;4.730;2022-12-07T06:33:45;4.40;99.90
8856;DHT22;4464;50.882;4.730;2022-12-07T06:36:11;4.40;99.90
8856;DHT22;4464;50.882;4.730;2022-12-07T06:38:37;4.40;99.90
8856;DHT22;4464;50.882;4.730;2022-12-07T06:41:05;4.40;99.90
8856;DHT22;4464;50.882;4.730;2022-12-07T06:43:33;4.50;99.90
8856;DHT22;4464;50.882;4.730;2022-12-07T06:45:59;4.50;99.90
8856;DHT22;4464;50.882;4.730;2022-12-07T06:48:25;4.40;99.90
8856;DHT22;4464;50.882;4.730;2022-12-07T06:50:52;4.40;99.90
8856;DHT22;4464;50.882;4.730;2022-12-07T06:53:18;4.40;99.90
8856;DHT22;4464;50.882;4.730;2022-12-07T06:55:43;4.40;99.90
8856;DHT22;4464;50.882;4.730;2022-12-07T06:58:12;4.30;99.90
8856;DHT22;4464;50.882;4.730;2022-12-07T07:00:38;4.30;99.90
8856;DHT22;4464;50.882;4.730;2022-12-07T07:03:06;4.20;99.90
8856;DHT22;4464;50.882;4.730;2022-12-07T07:05:32;4.10;99.90
8856;DHT22;4464;50.882;4.730;2022-12-07T07:07:58;4.10;99.90
8856;DHT22;4464;50.882;4.730;2022-12-07T07:10:24;4.10;99.90
8856;DHT22;4464;50.882;4.730;2022-12-07T07:12:52;4.10;99.90
8856;DHT22;4464;50.882;4.730;2022-12-07T07:15:22;4.20;99.90
8856;DHT22;4464;50.882;4.730;2022-12-07T07:17:48;4.30;99.90
8856;DHT22;4464;50.882;4.730;2022-12-07T07:20:13;4.30;99.90
8856;DHT22;4464;50.882;4.730;2022-12-07T07:22:43;4.30;99.90
8856;DHT22;4464;50.882;4.730;2022-12-07T07:25:09;4.30;99.90
8856;DHT22;4464;50.882;4.730;2022-12-07T07:27:35;4.20;99.90
8856;DHT22;4464;50.882;4.730;2022-12-07T07:30:03;4.30;99.90
8856;DHT22;4464;50.882;4.730;2022-12-07T07:32:29;4.30;99.90
8856;DHT22;4464;50.882;4.730;2022-12-07T07:34:58;4.40;99.90
8856;DHT22;4464;50.882;4.730;2022-12-07T07:37:24;4.40;99.90
8856;DHT22;4464;50.882;4.730;2022-12-07T07:39:51;4.40;99.90
8856;DHT22;4464;50.882;4.730;2022-12-07T07:42:16;4.40;99.90
8856;DHT22;4464;50.882;4.730;2022-12-07T07:44:44;4.40;99.90
8856;DHT22;4464;50.882;4.730;2022-12-07T07:47:11;4.40;99.90
8856;DHT22;4464;50.882;4.730;2022-12-07T07:49:37;4.40;99.90
8856;DHT22;4464;50.882;4.730;2022-12-07T07:52:05;4.40;99.90
8856;DHT22;4464;50.882;4.730;2022-12-07T07:54:32;4.50;99.90
8856;DHT22;4464;50.882;4.730;2022-12-07T07:56:57;4.50;99.90
8856;DHT22;4464;50.882;4.730;2022-12-07T07:59:26;4.50;99.90
8856;DHT22;4464;50.882;4.730;2022-12-07T08:01:51;4.50;99.90
8856;DHT22;4464;50.882;4.730;2022-12-07T08:04:19;4.50;99.90
8856;DHT22;4464;50.882;4.730;2022-12-07T08:06:45;4.50;99.90
8856;DHT22;4464;50.882;4.730;2022-12-07T08:09:12;4.50;99.90
8856;DHT22;4464;50.882;4.730;2022-12-07T08:11:38;4.50;99.90
8856;DHT22;4464;50.882;4.730;2022-12-07T08:14:04;4.40;99.90
8856;DHT22;4464;50.882;4.730;2022-12-07T08:16:30;4.30;99.90
8856;DHT22;4464;50.882;4.730;2022-12-07T08:18:56;4.30;99.90
8856;DHT22;4464;50.882;4.730;2022-12-07T08:21:22;4.20;99.90
8856;DHT22;4464;50.882;4.730;2022-12-07T08:23:51;4.20;99.90
8856;DHT22;4464;50.882;4.730;2022-12-07T08:26:17;4.20;99.90
8856;DHT22;4464;50.882;4.730;2022-12-07T08:28:44;4.20;99.90
8856;DHT22;4464;50.882;4.730;2022-12-07T08:31:16;4.10;99.90
8856;DHT22;4464;50.882;4.730;2022-12-07T08:33:45;4.20;99.90
8856;DHT22;4464;50.882;4.730;2022-12-07T08:36:14;4.40;99.90
8856;DHT22;4464;50.882;4.730;2022-12-07T08:38:41;4.70;99.90
8856;DHT22;4464;50.882;4.730;2022-12-07T08:41:09;4.90;99.90
8856;DHT22;4464;50.882;4.730;2022-12-07T08:43:36;5.10;99.90
8856;DHT22;4464;50.882;4.730;2022-12-07T08:46:25;5.20;99.90
8856;DHT22;4464;50.882;4.730;2022-12-07T08:49:02;5.50;99.90
8856;DHT22;4464;50.882;4.730;2022-12-07T08:51:29;5.50;99.90
8856;DHT22;4464;50.882;4.730;2022-12-07T08:53:56;5.50;99.90
8856;DHT22;4464;50.882;4.730;2022-12-07T08:56:26;5.50;99.90
8856;DHT22;4464;50.882;4.730;2022-12-07T08:58:55;5.60;99.90
8856;DHT22;4464;50.882;4.730;2022-12-07T09:01:23;5.50;99.90
8856;DHT22;4464;50.882;4.730;2022-12-07T09:03:49;5.60;99.90
8856;DHT22;4464;50.882;4.730;2022-12-07T09:06:15;5.60;99.90
8856;DHT22;4464;50.882;4.730;2022-12-07T09:08:45;5.70;99.90
8856;DHT22;4464;50.882;4.730;2022-12-07T09:11:11;5.60;99.90
8856;DHT22;4464;50.882;4.730;2022-12-07T09:13:37;5.50;99.90
8856;DHT22;4464;50.882;4.730;2022-12-07T09:16:02;5.30;99.90
8856;DHT22;4464;50.882;4.730;2022-12-07T09:18:31;5.30;99.90
8856;DHT22;4464;50.882;4.730;2022-12-07T09:20:59;5.30;99.90
8856;DHT22;4464;50.882;4.730;2022-12-07T09:23:25;5.40;99.90
8856;DHT22;4464;50.882;4.730;2022-12-07T09:25:53;5.40;99.90
8856;DHT22;4464;50.882;4.730;2022-12-07T09:28:21;5.50;99.90
8856;DHT22;4464;50.882;4.730;2022-12-07T09:30:48;5.40;99.90
8856;DHT22;4464;50.882;4.730;2022-12-07T09:33:17;5.50;99.90
8856;DHT22;4464;50.882;4.730;2022-12-07T09:35:47;5.50;99.90
8856;DHT22;4464;50.882;4.730;2022-12-07T09:38:16;5.50;99.90
8856;DHT22;4464;50.882;4.730;2022-12-07T09:40:43;5.50;99.90
8856;DHT22;4464;50.882;4.730;2022-12-07T09:43:19;5.50;99.90
8856;DHT22;4464;50.882;4.730;2022-12-07T09:45:51;5.60;99.90
8856;DHT22;4464;50.882;4.730;2022-12-07T09:48:39;5.70;99.90
8856;DHT22;4464;50.882;4.730;2022-12-07T09:51:22;6.00;99.90
8856;DHT22;4464;50.882;4.730;2022-12-07T09:53:49;6.20;99.90
8856;DHT22;4464;50.882;4.730;2022-12-07T09:56:19;6.50;99.90
8856;DHT22;4464;50.882;4.730;2022-12-07T09:58:46;6.60;99.90
8856;DHT22;4464;50.882;4.730;2022-12-07T10:03:45;6.70;99.90
8856;DHT22;4464;50.882;4.730;2022-12-07T10:06:13;6.80;99.90
8856;DHT22;4464;50.882;4.730;2022-12-07T10:08:40;6.90;99.90
8856;DHT22;4464;50.882;4.730;2022-12-07T10:11:09;6.90;99.90
8856;DHT22;4464;50.882;4.730;2022-12-07T10:13:47;6.90;99.90
8856;DHT22;4464;50.882;4.730;2022-12-07T10:16:40;6.90;99.90
8856;DHT22;4464;50.882;4.730;2022-12-07T10:19:27;7.00;99.90
8856;DHT22;4464;50.882;4.730;2022-12-07T10:22:15;6.90;99.90
8856;DHT22;4464;50.882;4.730;2022-12-07T10:24:43;7.00;99.90
8856;DHT22;4464;50.882;4.730;2022-12-07T10:27:26;7.20;99.90
8856;DHT22;4464;50.882;4.730;2022-12-07T10:29:54;7.20;99.90
8856;DHT22;4464;50.882;4.730;2022-12-07T10:32:34;7.20;99.90
8856;DHT22;4464;50.882;4.730;2022-12-07T10:35:27;7.20;99.90
8856;DHT22;4464;50.882;4.730;2022-12-07T10:37:58;7.40;99.90
8856;DHT22;4464;50.882;4.730;2022-12-07T10:40:29;7.40;99.90
8856;DHT22;4464;50.882;4.730;2022-12-07T10:45:28;7.60;99.90
8856;DHT22;4464;50.882;4.730;2022-12-07T10:48:27;7.90;99.90
8856;DHT22;4464;50.882;4.730;2022-12-07T11:17:35;7.80;99.90
8856;DHT22;4464;50.882;4.730;2022-12-07T11:23:11;7.20;99.90
8856;DHT22;4464;50.882;4.730;2022-12-07T11:25:41;7.20;99.90
8856;DHT22;4464;50.882;4.730;2022-12-07T11:31:19;7.10;99.90
8856;DHT22;4464;50.882;4.730;2022-12-07T11:33:57;7.00;99.90
8856;DHT22;4464;50.882;4.730;2022-12-07T11:36:42;7.10;99.90
8856;DHT22;4464;50.882;4.730;2022-12-07T11:39:30;7.40;99.90
8856;DHT22;4464;50.882;4.730;2022-12-07T11:42:09;8.40;99.90
8856;DHT22;4464;50.882;4.730;2022-12-07T11:44:51;9.90;99.90
8856;DHT22;4464;50.882;4.730;2022-12-07T11:47:41;9.60;99.90
8856;DHT22;4464;50.882;4.730;2022-12-07T11:50:51;9.00;99.90
8856;DHT22;4464;50.882;4.730;2022-12-07T11:53:22;8.70;99.90
8856;DHT22;4464;50.882;4.730;2022-12-07T11:56:07;8.50;99.90
8856;DHT22;4464;50.882;4.730;2022-12-07T12:06:41;10.50;99.90
8856;DHT22;4464;50.882;4.730;2022-12-07T12:09:12;10.30;99.90
8856;DHT22;4464;50.882;4.730;2022-12-07T12:23:19;9.00;99.90
8856;DHT22;4464;50.882;4.730;2022-12-07T12:25:49;8.80;99.90
8856;DHT22;4464;50.882;4.730;2022-12-07T12:28:34;8.60;99.90
8856;DHT22;4464;50.882;4.730;2022-12-07T12:31:11;8.50;99.90
8856;DHT22;4464;50.882;4.730;2022-12-07T12:33:46;8.40;99.90
8856;DHT22;4464;50.882;4.730;2022-12-07T12:38:50;8.00;99.90
8856;DHT22;4464;50.882;4.730;2022-12-07T12:51:55;7.60;99.90
8856;DHT22;4464;50.882;4.730;2022-12-07T12:54:34;7.80;99.90
8856;DHT22;4464;50.882;4.730;2022-12-07T12:57:14;7.90;99.90
8856;DHT22;4464;50.882;4.730;2022-12-07T12:59:57;8.50;99.90
8856;DHT22;4464;50.882;4.730;2022-12-07T13:02:30;9.00;99.90
8856;DHT22;4464;50.882;4.730;2022-12-07T13:05:01;9.30;99.90
8856;DHT22;4464;50.882;4.730;2022-12-07T13:15:48;11.60;99.90
8856;DHT22;4464;50.882;4.730;2022-12-07T13:20:58;12.60;99.90
8856;DHT22;4464;50.882;4.730;2022-12-07T13:29:11;11.80;99.90
8856;DHT22;4464;50.882;4.730;2022-12-07T13:37:00;11.00;99.90
8856;DHT22;4464;50.882;4.730;2022-12-07T13:39:28;10.60;99.90
8856;DHT22;4464;50.882;4.730;2022-12-07T13:41:56;10.30;99.90
8856;DHT22;4464;50.882;4.730;2022-12-07T13:44:25;9.70;99.90
8856;DHT22;4464;50.882;4.730;2022-12-07T13:47:53;9.30;99.90
8856;DHT22;4464;50.882;4.730;2022-12-07T13:49:55;9.00;99.90
8856;DHT22;4464;50.882;4.730;2022-12-07T13:52:22;8.60;99.90
8856;DHT22;4464;50.882;4.730;2022-12-07T13:54:59;8.40;99.90
8856;DHT22;4464;50.882;4.730;2022-12-07T13:57:29;8.10;99.90
8856;DHT22;4464;50.882;4.730;2022-12-07T14:00:01;7.80;99.90
8856;DHT22;4464;50.882;4.730;2022-12-07T14:02:30;7.70;99.90
8856;DHT22;4464;50.882;4.730;2022-12-07T14:05:30;7.80;99.90
8856;DHT22;4464;50.882;4.730;2022-12-07T14:08:04;7.80;99.90
8856;DHT22;4464;50.882;4.730;2022-12-07T14:10:56;7.80;99.90
8856;DHT22;4464;50.882;4.730;2022-12-07T14:16:01;7.80;99.90
8856;DHT22;4464;50.882;4.730;2022-12-07T14:18:40;7.80;99.90
8856;DHT22;4464;50.882;4.730;2022-12-07T14:23:35;7.80;99.90
8856;DHT22;4464;50.882;4.730;2022-12-07T14:26:15;7.70;99.90
8856;DHT22;4464;50.882;4.730;2022-12-07T14:28:42;7.60;99.90
8856;DHT22;4464;50.882;4.730;2022-12-07T14:31:18;7.50;99.90
8856;DHT22;4464;50.882;4.730;2022-12-07T14:33:47;7.50;99.90
8856;DHT22;4464;50.882;4.730;2022-12-07T14:36:13;7.40;99.90
8856;DHT22;4464;50.882;4.730;2022-12-07T14:38:40;7.30;99.90
8856;DHT22;4464;50.882;4.730;2022-12-07T14:41:12;7.30;99.90
8856;DHT22;4464;50.882;4.730;2022-12-07T14:43:58;7.30;99.90
8856;DHT22;4464;50.882;4.730;2022-12-07T14:46:24;7.20;99.90
8856;DHT22;4464;50.882;4.730;2022-12-07T14:48:52;7.20;99.90
8856;DHT22;4464;50.882;4.730;2022-12-07T14:51:20;6.90;99.90
8856;DHT22;4464;50.882;4.730;2022-12-07T14:53:50;6.70;99.90
8856;DHT22;4464;50.882;4.730;2022-12-07T14:56:17;6.50;99.90
8856;DHT22;4464;50.882;4.730;2022-12-07T14:58:43;6.50;99.90
8856;DHT22;4464;50.882;4.730;2022-12-07T15:01:09;6.40;99.90
8856;DHT22;4464;50.882;4.730;2022-12-07T15:03:37;6.40;99.90
8856;DHT22;4464;50.882;4.730;2022-12-07T15:06:05;6.40;99.90
8856;DHT22;4464;50.882;4.730;2022-12-07T15:08:31;6.40;99.90
8856;DHT22;4464;50.882;4.730;2022-12-07T15:10:57;6.40;99.90
8856;DHT22;4464;50.882;4.730;2022-12-07T15:13:23;6.40;99.90
8856;DHT22;4464;50.882;4.730;2022-12-07T15:16:14;6.30;99.90
8856;DHT22;4464;50.882;4.730;2022-12-07T15:18:42;6.30;99.90
8856;DHT22;4464;50.882;4.730;2022-12-07T15:21:14;6.20;99.90
8856;DHT22;4464;50.882;4.730;2022-12-07T15:23:42;6.10;99.90
8856;DHT22;4464;50.882;4.730;2022-12-07T15:26:10;6.10;99.90
8856;DHT22;4464;50.882;4.730;2022-12-07T15:28:36;6.00;99.90
8856;DHT22;4464;50.882;4.730;2022-12-07T15:31:02;5.90;99.90
8856;DHT22;4464;50.882;4.730;2022-12-07T15:33:28;5.90;99.90
8856;DHT22;4464;50.882;4.730;2022-12-07T15:35:59;5.80;99.90
8856;DHT22;4464;50.882;4.730;2022-12-07T15:38:27;5.80;99.90
8856;DHT22;4464;50.882;4.730;2022-12-07T15:40:55;5.70;99.90
8856;DHT22;4464;50.882;4.730;2022-12-07T15:43:21;5.70;99.90
8856;DHT22;4464;50.882;4.730;2022-12-07T15:46:05;5.70;99.90
8856;DHT22;4464;50.882;4.730;2022-12-07T15:48:31;5.70;99.90
8856;DHT22;4464;50.882;4.730;2022-12-07T15:51:03;5.70;99.90
8856;DHT22;4464;50.882;4.730;2022-12-07T15:53:31;5.70;99.90
8856;DHT22;4464;50.882;4.730;2022-12-07T15:55:57;5.70;99.90
8856;DHT22;4464;50.882;4.730;2022-12-07T15:58:23;5.70;99.90
8856;DHT22;4464;50.882;4.730;2022-12-07T16:00:48;5.80;99.90
8856;DHT22;4464;50.882;4.730;2022-12-07T16:03:17;5.80;99.90
8856;DHT22;4464;50.882;4.730;2022-12-07T16:05:52;5.80;99.90
8856;DHT22;4464;50.882;4.730;2022-12-07T16:08:19;5.80;99.90
8856;DHT22;4464;50.882;4.730;2022-12-07T16:10:47;5.80;99.90
8856;DHT22;4464;50.882;4.730;2022-12-07T16:13:15;5.80;99.90
8856;DHT22;4464;50.882;4.730;2022-12-07T16:15:42;5.80;99.90
8856;DHT22;4464;50.882;4.730;2022-12-07T16:18:08;5.90;99.90
8856;DHT22;4464;50.882;4.730;2022-12-07T16:20:34;5.80;99.90
8856;DHT22;4464;50.882;4.730;2022-12-07T16:23:00;5.90;99.90
8856;DHT22;4464;50.882;4.730;2022-12-07T16:25:26;5.80;99.90
8856;DHT22;4464;50.882;4.730;2022-12-07T16:27:52;5.80;99.90
8856;DHT22;4464;50.882;4.730;2022-12-07T16:30:18;5.90;99.90
8856;DHT22;4464;50.882;4.730;2022-12-07T16:32:44;5.90;99.90
8856;DHT22;4464;50.882;4.730;2022-12-07T16:35:10;5.90;99.90
8856;DHT22;4464;50.882;4.730;2022-12-07T16:37:37;5.90;99.90
8856;DHT22;4464;50.882;4.730;2022-12-07T16:40:04;5.90;99.90
8856;DHT22;4464;50.882;4.730;2022-12-07T16:42:33;5.90;99.90
8856;DHT22;4464;50.882;4.730;2022-12-07T16:45:00;5.90;99.90
8856;DHT22;4464;50.882;4.730;2022-12-07T16:47:29;5.90;99.90
8856;DHT22;4464;50.882;4.730;2022-12-07T16:49:54;5.90;99.90
8856;DHT22;4464;50.882;4.730;2022-12-07T16:52:21;5.80;99.90
8856;DHT22;4464;50.882;4.730;2022-12-07T16:54:50;5.80;99.90
8856;DHT22;4464;50.882;4.730;2022-12-07T16:57:16;5.80;99.90
8856;DHT22;4464;50.882;4.730;2022-12-07T16:59:43;5.80;99.90
8856;DHT22;4464;50.882;4.730;2022-12-07T17:02:11;5.80;99.90
8856;DHT22;4464;50.882;4.730;2022-12-07T17:04:40;5.90;99.90
8856;DHT22;4464;50.882;4.730;2022-12-07T17:07:08;5.90;99.90
8856;DHT22;4464;50.882;4.730;2022-12-07T17:09:36;5.90;99.90
8856;DHT22;4464;50.882;4.730;2022-12-07T17:12:01;5.80;99.90
8856;DHT22;4464;50.882;4.730;2022-12-07T17:14:27;5.90;99.90
8856;DHT22;4464;50.882;4.730;2022-12-07T17:17:12;5.80;99.90
8856;DHT22;4464;50.882;4.730;2022-12-07T17:19:40;5.90;99.90
8856;DHT22;4464;50.882;4.730;2022-12-07T17:22:08;5.80;99.90
8856;DHT22;4464;50.882;4.730;2022-12-07T17:24:36;5.80;99.90
8856;DHT22;4464;50.882;4.730;2022-12-07T17:27:03;5.80;99.90
8856;DHT22;4464;50.882;4.730;2022-12-07T17:29:34;5.90;99.90
8856;DHT22;4464;50.882;4.730;2022-12-07T17:31:59;5.80;99.90
8856;DHT22;4464;50.882;4.730;2022-12-07T17:34:26;5.80;99.90
8856;DHT22;4464;50.882;4.730;2022-12-07T17:36:51;5.80;99.90
8856;DHT22;4464;50.882;4.730;2022-12-07T17:39:18;5.80;99.90
8856;DHT22;4464;50.882;4.730;2022-12-07T17:41:44;5.80;99.90
8856;DHT22;4464;50.882;4.730;2022-12-07T17:44:29;5.80;99.90
8856;DHT22;4464;50.882;4.730;2022-12-07T17:46:55;5.80;99.90
8856;DHT22;4464;50.882;4.730;2022-12-07T17:49:29;5.80;99.90
8856;DHT22;4464;50.882;4.730;2022-12-07T17:51:56;5.80;99.90
8856;DHT22;4464;50.882;4.730;2022-12-07T17:54:42;5.80;99.90
8856;DHT22;4464;50.882;4.730;2022-12-07T17:57:08;5.80;99.90
8856;DHT22;4464;50.882;4.730;2022-12-07T17:59:34;5.80;99.90
8856;DHT22;4464;50.882;4.730;2022-12-07T18:02:00;5.70;99.90
8856;DHT22;4464;50.882;4.730;2022-12-07T18:04:26;5.80;99.90
8856;DHT22;4464;50.882;4.730;2022-12-07T18:06:51;5.70;99.90
8856;DHT22;4464;50.882;4.730;2022-12-07T18:09:20;5.80;99.90
8856;DHT22;4464;50.882;4.730;2022-12-07T18:11:50;5.70;99.90
8856;DHT22;4464;50.882;4.730;2022-12-07T18:14:16;5.70;99.90
8856;DHT22;4464;50.882;4.730;2022-12-07T18:16:42;5.70;99.90
8856;DHT22;4464;50.882;4.730;2022-12-07T18:19:12;5.70;99.90
8856;DHT22;4464;50.882;4.730;2022-12-07T18:21:41;5.80;99.90
8856;DHT22;4464;50.882;4.730;2022-12-07T18:24:12;5.70;99.90
8856;DHT22;4464;50.882;4.730;2022-12-07T18:26:38;5.80;99.90
8856;DHT22;4464;50.882;4.730;2022-12-07T18:29:07;5.70;99.90
8856;DHT22;4464;50.882;4.730;2022-12-07T18:31:34;5.70;99.90
8856;DHT22;4464;50.882;4.730;2022-12-07T18:34:02;5.70;99.90
8856;DHT22;4464;50.882;4.730;2022-12-07T18:36:29;5.60;99.90
8856;DHT22;4464;50.882;4.730;2022-12-07T18:38:55;5.70;99.90
8856;DHT22;4464;50.882;4.730;2022-12-07T18:41:21;5.60;99.90
8856;DHT22;4464;50.882;4.730;2022-12-07T18:43:47;5.60;99.90
8856;DHT22;4464;50.882;4.730;2022-12-07T18:46:16;5.50;99.90
8856;DHT22;4464;50.882;4.730;2022-12-07T18:48:43;5.50;99.90
8856;DHT22;4464;50.882;4.730;2022-12-07T18:51:13;5.50;99.90
8856;DHT22;4464;50.882;4.730;2022-12-07T18:53:39;5.40;99.90